Hovedside
METAR-TAF:

METAR-TAF

Lufthavner :

Pago Pago, USAs ytre småøyer

breddegrad: 14-20S, lengdegrad: 170-43W, høyde over havet: 3 m

Gjeldene værobservasjon

Denne rapporten ble laget for 1 time og 19 minutter siden, klokken 23:50 UTC
Vind 6 kt fra Sør
Temperatur 30°C
Luftfuktighet 75%
Trykk 1007 hPa
Sikt: 19.3 km
Spredte skyer i en høyde av 1900 ft
Spredte skyer i en høyde av 20000 ft

METAR: NSTU 282350Z 19006KT 12SM SCT019 SCT200 30/25 A2975 RMK SLP075 8/101 T02960253 10310 20258 56019

Tid: 14:09 (01:09 UTC)

Varsel

Denne rapporten ble laget for 1 time og 34 minutter siden, klokken 23:35 UTC
Varsel gyldig fra 29. klokken 00 UTC til 29. klokken 24 UTC
Vind 5 kt fra skiftende retning
Sikt: 10 km
Spredte skyer i en høyde av 2000 ft
Spredte skyer i en høyde av 4000 ft
Spredte skyer i en høyde av 20000 ft
regnbyger i nærheten

TAF: NSTU 282335Z 2900/2924 VRB05KT P6SM VCSH SCT020 SCT040 SCT200

Værobservasjoner og værvarsel for over 4000 flyplasser (METAR- og TAF-rapporter).

Tilgjengelige stasjoner er representert av de røde og gule prikkene på kartet.

Hold musepekeren over prikken for å se navnet på stasjonen.

Klikk så for å se værobservasjoner og -varsler.

For å forandre kartet kan du klikke på den grønne knappen med svart kryss for å zoome inn, på den grønne knappen med strek for å zoome ut, eller på de grønne pilene for å se tilstøtende kart.


METAR-TAF: